Time;durP1;ratioP1;P1;durP2;ratioP2;P2;SDS_P1;SDS_P2;PMS_P1;PMS_P2;Temp;Humidity;BMP_temperature;BMP_pressure;BME280_temperature;BME280_humidity;BME280_pressure;Samples;Min_cycle;Max_cycle;Signal;HPM_P1;HPM_P2
2022/01/28 00:01:02;;;;;;;28.08;16.00;;;10.30;58.60;;;;;;5016823;28;20029;-79
2022/01/28 00:03:28;;;;;;;23.98;14.93;;;9.80;59.60;;;;;;5032718;28;20040;-77
2022/01/28 00:05:53;;;;;;;23.08;13.65;;;9.60;60.30;;;;;;5015884;28;20041;-78
2022/01/28 00:08:19;;;;;;;23.27;14.27;;;9.30;61.00;;;;;;5017265;28;20033;-80
2022/01/28 00:10:45;;;;;;;22.80;13.25;;;9.70;60.20;;;;;;4996114;28;20033;-85
2022/01/28 00:37:05;;;;;;;26.27;15.50;;;9.90;59.80;;;;;;5052169;28;20036;-80
2022/01/28 00:39:32;;;;;;;24.52;14.40;;;9.90;60.00;;;;;;5042973;28;20029;-94
2022/01/28 00:41:58;;;;;;;24.67;14.38;;;9.80;59.80;;;;;;5032134;28;20029;-79
2022/01/28 00:44:24;;;;;;;24.95;14.10;;;9.70;60.30;;;;;;5029040;28;20364;-80
2022/01/28 00:46:50;;;;;;;26.40;14.90;;;9.50;60.60;;;;;;5035647;28;20070;-81
2022/01/28 00:49:15;;;;;;;24.48;14.05;;;9.10;61.70;;;;;;5054901;28;20028;-80
2022/01/28 00:51:41;;;;;;;25.27;15.40;;;9.00;61.60;;;;;;5056278;28;20064;-92
2022/01/28 00:54:07;;;;;;;25.98;15.63;;;8.90;62.10;;;;;;5055182;28;20079;-82
2022/01/28 00:56:33;;;;;;;26.52;14.88;;;8.90;62.00;;;;;;5025412;28;20044;-88
2022/01/28 00:58:58;;;;;;;27.55;15.40;;;8.60;62.80;;;;;;5044717;28;20033;-81
2022/01/28 01:01:24;;;;;;;27.25;16.23;;;8.20;64.30;;;;;;5058124;28;20032;-91
2022/01/28 01:03:50;;;;;;;25.65;14.63;;;8.40;64.00;;;;;;5058175;28;20349;-80
2022/01/28 01:06:17;;;;;;;28.65;15.50;;;8.40;63.80;;;;;;5071702;28;20123;-86
2022/01/28 01:08:43;;;;;;;26.42;15.27;;;8.40;63.70;;;;;;5075112;28;20028;-79
2022/01/28 01:11:09;;;;;;;26.35;15.77;;;8.60;63.10;;;;;;5059747;28;20036;-80
2022/01/28 01:13:37;;;;;;;27.67;15.77;;;8.70;63.00;;;;;;5077263;28;20070;-80
2022/01/28 01:16:04;;;;;;;25.63;14.95;;;8.70;62.70;;;;;;5059848;28;20050;-92
2022/01/28 01:18:46;;;;;;;28.40;15.48;;;8.70;62.50;;;;;;5059405;28;20024;-78
2022/01/28 01:21:18;;;;;;;28.50;15.50;;;8.80;62.70;;;;;;5077376;28;20028;-79
2022/01/28 01:23:53;;;;;;;26.90;15.88;;;8.30;63.30;;;;;;5059882;28;20494;-93
2022/01/28 01:26:26;;;;;;;30.17;16.55;;;8.90;62.60;;;;;;5059849;28;20032;-90
2022/01/28 01:28:52;;;;;;;26.58;15.05;;;9.10;61.60;;;;;;5077760;28;20025;-82
2022/01/28 01:31:19;;;;;;;27.85;14.80;;;8.80;62.00;;;;;;5059654;28;20376;-89
2022/01/28 01:34:01;;;;;;;27.67;15.45;;;8.70;62.20;;;;;;5059814;28;20126;-81
2022/01/28 01:36:26;;;;;;;29.17;15.38;;;9.10;61.80;;;;;;5077030;28;20153;-88
2022/01/28 01:38:53;;;;;;;25.90;14.80;;;9.30;60.90;;;;;;5077431;28;20024;-87
2022/01/28 01:41:29;;;;;;;25.85;15.25;;;9.20;61.10;;;;;;5062437;28;20024;-80
2022/01/28 01:44:01;;;;;;;25.70;14.38;;;9.40;60.90;;;;;;5079463;28;20024;-91
2022/01/28 01:46:57;;;;;;;25.88;14.63;;;9.50;60.30;;;;;;5079544;28;20445;-91
2022/01/28 01:52:06;;;;;;;24.25;14.07;;;9.20;60.90;;;;;;5097978;28;20078;-93
2022/01/28 01:54:38;;;;;;;27.23;14.45;;;9.20;60.50;;;;;;5096620;28;20055;-88
2022/01/28 01:57:07;;;;;;;23.30;12.68;;;9.50;60.10;;;;;;5079491;28;20078;-89
2022/01/28 01:59:33;;;;;;;25.83;12.70;;;9.30;60.40;;;;;;5095206;28;20051;-90
2022/01/28 02:01:59;;;;;;;22.75;12.75;;;9.10;60.70;;;;;;5059471;28;20059;-92
2022/01/28 02:04:25;;;;;;;21.60;12.45;;;8.60;62.00;;;;;;5065028;28;20028;-88
2022/01/28 02:06:51;;;;;;;19.48;11.60;;;8.60;62.10;;;;;;5097375;28;20135;-91
2022/01/28 02:09:17;;;;;;;19.88;11.38;;;8.40;62.50;;;;;;5079238;28;20031;-81
2022/01/28 02:11:43;;;;;;;21.52;11.95;;;8.60;62.10;;;;;;5097011;28;20377;-93
2022/01/28 02:14:09;;;;;;;19.65;11.90;;;8.60;62.20;;;;;;5079025;28;20021;-79
2022/01/28 02:16:35;;;;;;;18.63;11.60;;;9.00;60.90;;;;;;5076926;28;20541;-80
2022/01/28 02:19:01;;;;;;;19.30;11.18;;;8.80;61.20;;;;;;5060327;28;20048;-92
2022/01/28 02:21:27;;;;;;;17.90;11.20;;;9.00;61.10;;;;;;5078840;28;20074;-83
2022/01/28 02:23:59;;;;;;;16.50;10.32;;;9.10;60.30;;;;;;5097256;28;20099;-80
2022/01/28 02:26:24;;;;;;;17.83;10.40;;;9.10;60.00;;;;;;5079178;28;20036;-88
2022/01/28 02:28:52;;;;;;;16.45;10.25;;;8.80;60.90;;;;;;5076753;28;20145;-80
2022/01/28 02:31:22;;;;;;;16.90;10.73;;;8.60;61.40;;;;;;5077527;28;20020;-81
2022/01/28 02:33:49;;;;;;;;;;;8.60;61.60;;;;;;5078795;28;20066;-79
2022/01/28 02:36:15;;;;;;;17.30;9.98;;;8.40;61.80;;;;;;5079333;28;19954;-88
2022/01/28 02:38:41;;;;;;;15.90;9.68;;;8.30;62.20;;;;;;5096936;28;20023;-80
2022/01/28 02:41:07;;;;;;;14.52;9.52;;;8.40;62.10;;;;;;5096136;28;20498;-86
2022/01/28 02:46:06;;;;;;;15.02;9.18;;;8.80;61.40;;;;;;5096565;28;20039;-91
2022/01/28 02:48:34;;;;;;;14.75;9.40;;;9.10;60.50;;;;;;5079217;28;20016;-91
2022/01/28 02:53:29;;;;;;;15.35;8.88;;;8.90;60.80;;;;;;5075446;28;20491;-92
2022/01/28 02:56:01;;;;;;;14.93;9.38;;;9.10;60.50;;;;;;5074320;28;20024;-81
2022/01/28 02:58:27;;;;;;;15.95;9.45;;;9.20;60.00;;;;;;5077479;28;20028;-83
2022/01/28 03:00:57;;;;;;;13.98;8.52;;;9.20;60.70;;;;;;5096476;28;20035;-83
2022/01/28 03:03:24;;;;;;;12.35;8.52;;;9.20;60.00;;;;;;5090522;28;20032;-92
2022/01/28 03:05:53;;;;;;;14.10;8.95;;;8.90;60.30;;;;;;5058147;28;20048;-81
2022/01/28 03:08:24;;;;;;;12.43;8.05;;;9.00;60.60;;;;;;5076609;28;20021;-80
2022/01/28 03:12:13;;;;;;;13.32;8.27;;;8.80;60.60;;;;;;5091355;27;20479;-78
2022/01/28 03:14:36;;;;;;;13.25;8.45;;;8.90;61.10;;;;;;5092282;28;20085;-84
2022/01/28 03:19:40;;;;;;;12.45;7.28;;;9.40;59.80;;;;;;5092786;28;20103;-79
2022/01/28 03:22:06;;;;;;;13.85;8.60;;;9.20;60.00;;;;;;5082279;28;20063;-84
2022/01/28 03:24:32;;;;;;;13.48;7.90;;;9.40;59.80;;;;;;5073014;28;20035;-92
2022/01/28 03:27:04;;;;;;;12.98;7.43;;;9.60;59.40;;;;;;5087441;28;20483;-79
2022/01/28 03:29:29;;;;;;;13.05;7.60;;;9.50;59.50;;;;;;5071011;28;20052;-91
2022/01/28 03:31:58;;;;;;;11.75;7.47;;;9.60;59.20;;;;;;5078031;28;20059;-83
2022/01/28 03:34:24;;;;;;;10.77;7.07;;;9.30;59.70;;;;;;5092071;28;20031;-89
2022/01/28 03:36:52;;;;;;;10.18;7.07;;;9.00;60.30;;;;;;5092229;28;20028;-79
2022/01/28 03:39:18;;;;;;;11.73;7.32;;;8.50;62.10;;;;;;5090970;28;20051;-90
2022/01/28 03:41:44;;;;;;;10.65;6.97;;;8.70;61.70;;;;;;5090987;28;20051;-91
2022/01/28 03:44:10;;;;;;;10.32;6.80;;;8.80;61.30;;;;;;5092006;28;20048;-90
2022/01/28 03:46:36;;;;;;;14.27;7.68;;;8.80;61.10;;;;;;5092678;28;20021;-85
2022/01/28 03:49:03;;;;;;;11.07;6.60;;;8.90;60.90;;;;;;5091170;28;20073;-92
2022/01/28 03:51:29;;;;;;;11.10;6.80;;;8.90;60.70;;;;;;5091776;28;20051;-90
2022/01/28 03:53:56;;;;;;;11.30;7.45;;;9.10;60.60;;;;;;5091847;28;20379;-79
2022/01/28 03:56:22;;;;;;;10.88;6.88;;;9.10;60.50;;;;;;5091604;28;20056;-78
2022/01/28 03:58:47;;;;;;;11.35;6.70;;;9.30;59.70;;;;;;5073949;28;20033;-82
2022/01/28 04:01:18;;;;;;;9.27;6.28;;;9.50;59.30;;;;;;5070135;28;20074;-80
2022/01/28 04:11:42;;;;;;;11.20;6.68;;;8.40;60.90;;;;;;5080561;28;20039;-88
2022/01/28 04:19:32;;;;;;;10.48;6.82;;;8.30;61.90;;;;;;5099732;28;20024;-91
2022/01/28 04:21:58;;;;;;;10.05;6.80;;;8.20;61.60;;;;;;5062375;28;20025;-84
2022/01/28 04:24:24;;;;;;;10.20;5.93;;;8.20;62.10;;;;;;5075791;28;20174;-79
2022/01/28 04:26:49;;;;;;;10.13;6.53;;;8.30;61.30;;;;;;5076250;28;20036;-81
2022/01/28 04:29:15;;;;;;;9.23;5.72;;;8.20;61.80;;;;;;5079219;28;20028;-81
2022/01/28 04:31:45;;;;;;;9.90;6.00;;;8.20;61.90;;;;;;5059083;28;20123;-83
2022/01/28 04:34:11;;;;;;;10.75;6.00;;;8.20;61.70;;;;;;5075815;28;20024;-88
2022/01/28 04:36:45;;;;;;;10.25;6.22;;;8.40;61.40;;;;;;5075864;28;20024;-86
2022/01/28 04:39:25;;;;;;;9.48;6.05;;;8.20;61.20;;;;;;5063684;28;20529;-92
2022/01/28 04:42:03;;;;;;;11.10;7.03;;;8.20;61.50;;;;;;5095588;28;20024;-80
2022/01/28 04:44:44;;;;;;;9.15;5.95;;;8.30;61.10;;;;;;5078442;28;20032;-90
2022/01/28 04:50:32;;;;;;;9.40;5.43;;;7.80;62.20;;;;;;5015306;28;20049;-88
2022/01/28 05:00:55;;;;;;;8.73;5.35;;;8.00;61.80;;;;;;4995622;28;20161;-80
2022/01/28 05:26:59;;;;;;;7.18;4.18;;;8.10;62.30;;;;;;5026230;28;20033;-91
2022/01/28 05:29:26;;;;;;;5.93;4.10;;;7.90;62.70;;;;;;5056676;28;20029;-87
2022/01/28 05:31:51;;;;;;;7.88;4.03;;;7.90;62.90;;;;;;5056751;28;20029;-91
2022/01/28 05:34:17;;;;;;;6.88;4.30;;;8.00;62.60;;;;;;5055286;28;20052;-84
2022/01/28 05:36:44;;;;;;;6.00;3.83;;;8.20;62.30;;;;;;5055267;28;20051;-79
2022/01/28 05:39:10;;;;;;;5.88;3.67;;;8.30;61.80;;;;;;5056239;28;20133;-78
2022/01/28 05:41:36;;;;;;;5.88;3.50;;;8.50;62.20;;;;;;5057178;28;20053;-88
2022/01/28 05:44:02;;;;;;;6.03;3.67;;;8.40;61.70;;;;;;5055511;28;20455;-79
2022/01/28 05:46:29;;;;;;;6.13;3.38;;;8.40;61.90;;;;;;5055742;28;20043;-81
2022/01/28 05:48:56;;;;;;;5.15;3.42;;;8.40;61.50;;;;;;5076617;28;20027;-86
2022/01/28 05:51:22;;;;;;;6.25;3.50;;;8.50;61.40;;;;;;5074728;28;20024;-80
2022/01/28 05:53:48;;;;;;;4.93;3.33;;;8.70;61.00;;;;;;5076028;28;20035;-79
2022/01/28 05:56:14;;;;;;;5.07;3.20;;;8.80;60.50;;;;;;5075357;28;20029;-80
2022/01/28 05:58:39;;;;;;;6.05;3.13;;;8.90;60.30;;;;;;5075175;28;20036;-78
2022/01/28 06:01:05;;;;;;;5.82;2.95;;;8.60;61.00;;;;;;5058967;28;20108;-80
2022/01/28 06:03:31;;;;;;;6.60;3.92;;;8.70;60.80;;;;;;5054121;28;20036;-84
2022/01/28 06:05:56;;;;;;;8.10;4.20;;;8.70;61.00;;;;;;5057650;28;20025;-80
2022/01/28 06:08:22;;;;;;;23.65;9.68;;;8.80;60.80;;;;;;5074096;28;20468;-80
2022/01/28 06:10:48;;;;;;;11.02;6.07;;;9.10;60.10;;;;;;5056143;28;20461;-82
2022/01/28 06:13:14;;;;;;;15.57;8.00;;;9.40;59.70;;;;;;5054944;28;20025;-82
2022/01/28 06:15:43;;;;;;;5.78;3.30;;;9.30;59.20;;;;;;5063361;28;20111;-92
2022/01/28 06:18:10;;;;;;;7.82;5.03;;;9.30;59.60;;;;;;5069714;28;20055;-79
2022/01/28 06:20:36;;;;;;;10.05;5.25;;;9.20;59.60;;;;;;5054452;28;20032;-78
2022/01/28 06:23:02;;;;;;;7.50;3.85;;;9.70;59.30;;;;;;5062165;28;20043;-80
2022/01/28 06:25:31;;;;;;;6.55;4.38;;;9.90;58.10;;;;;;5070212;28;20028;-82
2022/01/28 06:27:57;;;;;;;5.63;3.60;;;9.70;58.60;;;;;;5054101;28;20037;-89
2022/01/28 06:30:23;;;;;;;7.35;3.75;;;9.50;59.20;;;;;;5054824;28;20041;-80
2022/01/28 06:32:49;;;;;;;5.13;3.13;;;9.70;58.50;;;;;;5053800;28;20036;-82
2022/01/28 06:35:15;;;;;;;10.13;4.75;;;9.40;59.00;;;;;;5054879;28;20029;-88
2022/01/28 06:37:45;;;;;;;5.38;3.00;;;9.20;59.60;;;;;;5054630;28;20029;-79
2022/01/28 06:40:15;;;;;;;11.13;5.13;;;9.10;59.50;;;;;;5054323;28;20410;-79
2022/01/28 06:42:41;;;;;;;9.80;5.43;;;9.40;59.50;;;;;;5053684;28;20061;-80
2022/01/28 06:45:07;;;;;;;8.13;4.78;;;9.70;58.00;;;;;;5071381;28;20025;-82
2022/01/28 06:47:35;;;;;;;5.78;3.58;;;9.80;58.20;;;;;;5055104;28;20060;-80
2022/01/28 06:50:02;;;;;;;7.32;4.35;;;9.50;58.50;;;;;;5054430;28;20025;-80
2022/01/28 06:52:28;;;;;;;8.43;5.13;;;9.20;59.00;;;;;;5054048;28;20112;-80
2022/01/28 06:54:54;;;;;;;6.18;3.30;;;9.30;58.40;;;;;;4704231;28;9999709;-78
2022/01/28 06:57:20;;;;;;;11.50;6.72;;;9.40;58.70;;;;;;5049184;28;20017;-80
2022/01/28 06:59:45;;;;;;;5.15;2.90;;;9.80;57.40;;;;;;5050948;28;20021;-80
2022/01/28 07:02:24;;;;;;;9.50;6.30;;;9.80;57.30;;;;;;4816324;28;21146;-81
2022/01/28 07:04:50;;;;;;;6.47;3.78;;;9.80;56.80;;;;;;4878202;28;20418;-78
2022/01/28 07:07:17;;;;;;;5.38;3.65;;;9.90;56.60;;;;;;5049590;28;20533;-82
2022/01/28 07:09:42;;;;;;;6.05;3.97;;;9.70;56.50;;;;;;5051841;28;20072;-83
2022/01/28 07:12:09;;;;;;;11.45;7.50;;;9.90;56.40;;;;;;5063006;28;20498;-89
2022/01/28 07:14:34;;;;;;;5.97;4.07;;;9.90;55.90;;;;;;5075524;28;20029;-90
2022/01/28 07:17:00;;;;;;;6.32;3.42;;;10.10;55.60;;;;;;5059860;28;20032;-85
2022/01/28 07:19:26;;;;;;;4.75;2.47;;;10.60;55.20;;;;;;5053318;28;20048;-80
2022/01/28 07:21:52;;;;;;;9.88;5.78;;;10.30;54.30;;;;;;5049131;28;20120;-84
2022/01/28 07:24:18;;;;;;;4.32;2.60;;;10.10;55.20;;;;;;5052221;28;20147;-93
2022/01/28 07:26:47;;;;;;;8.18;5.35;;;10.20;55.30;;;;;;5054610;28;20029;-91
2022/01/28 07:29:13;;;;;;;5.45;3.33;;;10.70;54.50;;;;;;5032114;28;20040;-85
2022/01/28 07:31:41;;;;;;;5.80;3.17;;;10.90;53.90;;;;;;5032349;28;20487;-88
2022/01/28 07:34:07;;;;;;;5.50;3.33;;;10.80;54.20;;;;;;5032295;28;20029;-82
2022/01/28 07:36:36;;;;;;;5.85;3.50;;;10.80;54.30;;;;;;5031835;28;20058;-91
2022/01/28 07:39:06;;;;;;;5.55;3.33;;;10.30;55.10;;;;;;5031769;28;20022;-86
2022/01/28 07:41:36;;;;;;;6.22;2.40;;;10.70;54.60;;;;;;5034863;28;20111;-77
2022/01/28 07:44:02;;;;;;;4.63;2.75;;;10.70;55.00;;;;;;5050358;28;20132;-79
2022/01/28 07:46:27;;;;;;;5.53;2.60;;;10.90;54.30;;;;;;5049888;28;20523;-79
2022/01/28 07:48:53;;;;;;;5.72;3.30;;;10.50;54.40;;;;;;5049586;28;20021;-79
2022/01/28 07:51:19;;;;;;;5.60;3.17;;;10.30;55.00;;;;;;5050071;28;20044;-78
2022/01/28 07:53:45;;;;;;;4.13;2.40;;;10.10;55.00;;;;;;5050794;28;20021;-83
2022/01/28 07:56:13;;;;;;;5.13;2.80;;;10.20;54.70;;;;;;5051593;28;20033;-77
2022/01/28 07:58:39;;;;;;;4.28;2.45;;;10.30;54.70;;;;;;5057907;28;20021;-78
2022/01/28 08:01:04;;;;;;;4.10;2.15;;;9.90;54.40;;;;;;5052523;28;20114;-78
2022/01/28 08:03:30;;;;;;;4.53;2.15;;;9.80;55.00;;;;;;5052415;28;20025;-78
2022/01/28 08:05:56;;;;;;;3.85;2.10;;;9.80;55.00;;;;;;5054033;28;20031;-79
2022/01/28 08:08:21;;;;;;;5.10;2.55;;;9.90;54.60;;;;;;5053316;28;20364;-77
2022/01/28 08:10:48;;;;;;;4.10;2.00;;;10.40;54.20;;;;;;5053026;28;20052;-78
2022/01/28 08:13:15;;;;;;;6.65;2.58;;;10.70;52.80;;;;;;5053053;28;20079;-78
2022/01/28 08:15:42;;;;;;;4.68;2.60;;;10.60;52.80;;;;;;5066562;28;20036;-78
2022/01/28 08:18:08;;;;;;;6.70;2.38;;;10.70;53.00;;;;;;5071980;28;20086;-79
2022/01/28 08:20:38;;;;;;;9.82;5.30;;;10.40;53.20;;;;;;5063719;28;20475;-84
2022/01/28 08:23:04;;;;;;;5.40;2.07;;;10.20;52.90;;;;;;5052656;28;20036;-78
2022/01/28 08:25:32;;;;;;;3.70;1.80;;;9.90;53.70;;;;;;5054023;28;20044;-77
2022/01/28 08:27:59;;;;;;;3.80;1.80;;;10.10;53.80;;;;;;5053567;28;20079;-77
2022/01/28 08:30:26;;;;;;;7.00;2.08;;;10.60;52.50;;;;;;5051280;28;20574;-78
2022/01/28 08:32:53;;;;;;;5.38;2.80;;;10.80;52.40;;;;;;5052513;28;20076;-81
2022/01/28 08:35:29;;;;;;;7.68;4.05;;;11.20;51.50;;;;;;5051308;28;20033;-83
2022/01/28 08:37:56;;;;;;;6.47;3.20;;;11.50;50.30;;;;;;5067842;28;20044;-80
2022/01/28 08:40:22;;;;;;;4.70;2.53;;;11.20;50.60;;;;;;5058689;28;20025;-81
2022/01/28 08:42:48;;;;;;;6.05;3.33;;;11.10;50.80;;;;;;5055842;28;20050;-78
2022/01/28 08:45:14;;;;;;;3.80;2.17;;;10.90;51.10;;;;;;5065979;28;20063;-81
2022/01/28 08:47:39;;;;;;;5.18;2.10;;;11.00;50.90;;;;;;5051801;28;20032;-83
2022/01/28 08:50:06;;;;;;;4.97;2.03;;;11.10;50.70;;;;;;5050684;28;20372;-78
2022/01/28 08:52:31;;;;;;;4.60;2.05;;;10.90;50.60;;;;;;5051420;28;20098;-78
2022/01/28 08:54:57;;;;;;;6.65;2.45;;;10.70;51.10;;;;;;5063710;28;20056;-86
2022/01/28 08:57:23;;;;;;;4.07;2.08;;;11.00;50.60;;;;;;5058113;28;20025;-81
2022/01/28 08:59:48;;;;;;;3.33;1.70;;;10.90;50.50;;;;;;5050619;28;20032;-80
2022/01/28 09:02:14;;;;;;;4.13;1.80;;;10.60;50.20;;;;;;5035518;28;20034;-79
2022/01/28 09:04:40;;;;;;;5.28;2.25;;;10.60;50.50;;;;;;5036171;28;20032;-79
2022/01/28 09:07:05;;;;;;;3.83;1.88;;;10.90;50.40;;;;;;5040863;28;20025;-79
2022/01/28 09:09:31;;;;;;;6.10;2.95;;;11.10;49.70;;;;;;5039358;28;20037;-81
2022/01/28 09:12:19;;;;;;;8.25;1.83;;;11.60;49.10;;;;;;5038292;28;20116;-79
2022/01/28 09:14:45;;;;;;;4.57;1.92;;;11.50;48.40;;;;;;5036255;28;20487;-80
2022/01/28 09:17:12;;;;;;;5.72;1.90;;;11.30;48.60;;;;;;5034928;28;20025;-80
2022/01/28 09:19:37;;;;;;;6.47;2.70;;;12.40;47.90;;;;;;5034615;28;20032;-79
2022/01/28 09:22:04;;;;;;;8.77;3.85;;;14.20;45.70;;;;;;5032378;28;20025;-79
2022/01/28 09:24:30;;;;;;;8.15;2.42;;;16.10;43.50;;;;;;5034768;28;20065;-79
2022/01/28 09:26:55;;;;;;;7.22;3.13;;;15.40;42.80;;;;;;5034793;28;20430;-79
2022/01/28 09:29:25;;;;;;;5.40;2.60;;;15.40;42.70;;;;;;5035041;28;20060;-82
2022/01/28 09:31:50;;;;;;;8.05;4.32;;;14.00;44.20;;;;;;5035225;28;20037;-80
2022/01/28 09:34:16;;;;;;;8.55;4.28;;;14.00;44.40;;;;;;5035193;28;20091;-80
2022/01/28 09:36:42;;;;;;;8.75;5.10;;;14.20;43.80;;;;;;5034007;28;20025;-80
2022/01/28 09:39:07;;;;;;;11.00;5.50;;;14.40;44.00;;;;;;5035253;28;20112;-82
2022/01/28 09:41:40;;;;;;;4.10;2.15;;;15.00;43.10;;;;;;5036104;28;20025;-87
2022/01/28 09:44:11;;;;;;;18.75;9.70;;;15.50;42.30;;;;;;5033882;28;20032;-80
2022/01/28 09:46:38;;;;;;;37.45;17.73;;;15.40;42.40;;;;;;5036296;28;20116;-82
2022/01/28 09:49:04;;;;;;;10.35;4.18;;;14.00;43.80;;;;;;5033844;28;20530;-79
2022/01/28 09:51:29;;;;;;;54.90;25.23;;;13.40;45.30;;;;;;5034612;28;20029;-81
2022/01/28 09:53:56;;;;;;;20.23;10.13;;;13.20;45.00;;;;;;5034753;28;20043;-85
2022/01/28 09:56:21;;;;;;;7.30;3.25;;;13.60;44.90;;;;;;5033779;28;20025;-79
2022/01/28 09:58:47;;;;;;;6.68;3.58;;;13.50;44.50;;;;;;5034182;28;20079;-79
2022/01/28 10:01:12;;;;;;;8.40;3.38;;;13.10;45.00;;;;;;5034755;28;20036;-80
2022/01/28 10:03:38;;;;;;;5.60;1.83;;;13.00;45.60;;;;;;5035289;28;20060;-78
2022/01/28 10:06:04;;;;;;;5.30;2.17;;;12.90;45.00;;;;;;5034855;28;20025;-81
2022/01/28 10:08:32;;;;;;;5.03;2.47;;;12.80;46.00;;;;;;5034823;28;20033;-80
2022/01/28 10:11:09;;;;;;;6.85;3.22;;;13.30;45.30;;;;;;5034647;28;20041;-80
2022/01/28 10:13:45;;;;;;;7.10;2.30;;;13.10;45.00;;;;;;5034871;28;20028;-79
2022/01/28 10:16:14;;;;;;;5.07;2.50;;;12.80;45.60;;;;;;5035392;28;20025;-84
2022/01/28 10:18:45;;;;;;;4.95;2.35;;;12.30;45.90;;;;;;5033634;28;20471;-82
2022/01/28 10:21:15;;;;;;;6.38;2.00;;;11.40;47.50;;;;;;5050889;28;20088;-81
2022/01/28 10:23:41;;;;;;;5.30;2.50;;;10.90;48.50;;;;;;5034613;28;20391;-81
2022/01/28 10:26:07;;;;;;;3.88;1.85;;;11.00;48.40;;;;;;5033495;28;20029;-80
2022/01/28 10:28:33;;;;;;;6.03;1.70;;;10.90;48.70;;;;;;5034858;28;20502;-79
2022/01/28 10:31:04;;;;;;;8.02;3.70;;;10.70;48.40;;;;;;5033364;28;20128;-79
2022/01/28 10:33:30;;;;;;;7.10;2.70;;;10.50;48.90;;;;;;5034753;28;20017;-80
2022/01/28 10:36:02;;;;;;;9.45;3.25;;;10.70;49.20;;;;;;5033848;28;20022;-80
2022/01/28 10:38:29;;;;;;;11.85;4.65;;;10.70;48.90;;;;;;5034840;28;20030;-87
2022/01/28 10:41:18;;;;;;;8.02;3.38;;;10.70;49.10;;;;;;5032998;28;20030;-84
2022/01/28 10:43:43;;;;;;;14.48;6.75;;;10.70;48.70;;;;;;5034348;28;20022;-77
2022/01/28 10:46:09;;;;;;;6.80;2.75;;;10.50;48.90;;;;;;5033915;28;20037;-85
2022/01/28 10:49:03;;;;;;;4.68;1.60;;;10.20;48.70;;;;;;5032003;28;20037;-79
2022/01/28 10:52:06;;;;;;;4.38;2.10;;;10.20;49.10;;;;;;5033869;28;20045;-86
2022/01/28 10:54:31;;;;;;;4.97;1.92;;;10.40;48.80;;;;;;5035395;28;20124;-79
2022/01/28 10:57:00;;;;;;;5.80;2.65;;;10.50;48.60;;;;;;5052811;28;20033;-82
2022/01/28 10:59:41;;;;;;;5.70;1.90;;;10.60;48.50;;;;;;5052047;28;20372;-78
2022/01/28 11:02:07;;;;;;;5.25;1.85;;;10.50;48.70;;;;;;5036408;28;20033;-87
2022/01/28 11:04:34;;;;;;;4.47;1.42;;;10.40;48.40;;;;;;4338388;28;10000702;-79
2022/01/28 11:07:01;;;;;;;6.15;1.70;;;10.60;48.30;;;;;;5052391;28;20049;-81
2022/01/28 11:09:28;;;;;;;4.35;1.50;;;11.20;47.90;;;;;;5052063;28;20391;-78
2022/01/28 11:12:00;;;;;;;5.28;1.80;;;11.40;46.90;;;;;;5051947;28;20143;-82
2022/01/28 11:14:26;;;;;;;3.83;1.40;;;11.50;47.00;;;;;;5052223;28;20025;-79
2022/01/28 11:16:52;;;;;;;5.32;1.90;;;11.80;46.70;;;;;;5051584;28;20041;-81
2022/01/28 11:19:21;;;;;;;5.78;2.38;;;11.80;46.20;;;;;;5051823;28;20021;-81
2022/01/28 11:21:47;;;;;;;21.35;14.52;;;11.70;45.80;;;;;;5051594;28;20029;-80
2022/01/28 11:24:39;;;;;;;7.57;2.95;;;11.60;46.40;;;;;;5052037;28;20056;-84
2022/01/28 11:27:23;;;;;;;3.67;1.60;;;11.10;47.20;;;;;;5050427;28;20056;-81
2022/01/28 11:29:49;;;;;;;5.13;1.90;;;10.70;48.00;;;;;;5044844;28;20099;-79
2022/01/28 11:32:17;;;;;;;3.95;1.60;;;10.00;49.50;;;;;;5052361;28;20033;-80
2022/01/28 11:34:58;;;;;;;4.57;1.50;;;10.20;49.40;;;;;;5037375;28;20208;-81
2022/01/28 11:37:35;;;;;;;4.78;2.13;;;10.20;49.40;;;;;;5038378;28;20025;-82
2022/01/28 11:40:12;;;;;;;6.22;3.30;;;10.40;49.40;;;;;;5036458;28;20053;-79
2022/01/28 11:42:38;;;;;;;4.93;2.80;;;10.30;49.30;;;;;;5036987;28;20028;-80
2022/01/28 11:45:07;;;;;;;11.07;2.80;;;10.20;49.50;;;;;;5036218;28;20021;-79
2022/01/28 11:47:40;;;;;;;5.28;2.08;;;10.30;49.50;;;;;;5053552;28;20475;-79
2022/01/28 11:50:14;;;;;;;6.63;1.90;;;10.60;49.20;;;;;;5036327;28;20045;-83
2022/01/28 11:52:49;;;;;;;6.10;1.45;;;10.30;49.30;;;;;;5036237;28;20481;-79
2022/01/28 11:55:29;;;;;;;6.32;1.88;;;10.30;49.70;;;;;;5036521;28;20079;-80
2022/01/28 11:58:21;;;;;;;5.07;1.67;;;10.40;49.60;;;;;;5035959;28;20027;-79
2022/01/28 12:00:53;;;;;;;4.28;1.58;;;10.50;49.70;;;;;;5037967;28;20038;-82
2022/01/28 12:03:25;;;;;;;5.72;2.22;;;10.80;49.40;;;;;;5036019;28;20022;-79
2022/01/28 12:06:11;;;;;;;12.35;5.10;;;11.10;49.00;;;;;;5037815;28;20028;-83
2022/01/28 12:08:39;;;;;;;9.05;3.85;;;10.70;49.00;;;;;;5036050;28;20037;-87
2022/01/28 12:11:08;;;;;;;22.15;9.18;;;10.30;50.10;;;;;;5029636;28;20137;-78
2022/01/28 12:14:03;;;;;;;16.83;6.97;;;10.40;50.50;;;;;;5035936;28;20026;-79
2022/01/28 12:16:33;;;;;;;7.13;2.40;;;10.40;49.80;;;;;;5037222;28;20024;-79
2022/01/28 12:19:01;;;;;;;12.48;5.50;;;10.60;49.70;;;;;;5036096;28;20029;-79
2022/01/28 12:21:28;;;;;;;6.97;2.95;;;10.90;49.30;;;;;;5035869;28;20021;-82
2022/01/28 12:24:20;;;;;;;7.18;2.63;;;10.60;49.70;;;;;;5035943;28;20021;-80
2022/01/28 12:26:56;;;;;;;5.60;1.95;;;10.50;50.10;;;;;;5036660;28;20025;-80
2022/01/28 12:29:32;;;;;;;7.50;2.53;;;10.60;49.70;;;;;;5037310;28;20033;-80
2022/01/28 12:31:59;;;;;;;7.03;1.90;;;10.60;49.90;;;;;;5036902;28;20029;-82
2022/01/28 12:34:29;;;;;;;6.10;1.80;;;10.80;49.40;;;;;;5037044;28;20479;-79
2022/01/28 12:36:59;;;;;;;4.15;2.00;;;10.70;50.00;;;;;;5036733;28;20036;-80
2022/01/28 12:42:11;;;;;;;8.30;1.90;;;10.90;49.60;;;;;;5036419;28;20026;-79
2022/01/28 12:44:39;;;;;;;4.47;1.70;;;10.70;49.90;;;;;;5035879;28;20116;-80
2022/01/28 12:47:10;;;;;;;3.88;1.70;;;10.70;50.00;;;;;;5035373;28;20030;-80
2022/01/28 12:49:38;;;;;;;5.55;2.05;;;10.90;50.20;;;;;;5035412;28;20104;-79
2022/01/28 12:52:06;;;;;;;5.32;1.80;;;11.20;49.50;;;;;;5052031;28;20030;-80
2022/01/28 12:54:50;;;;;;;4.47;1.70;;;11.30;49.20;;;;;;5035129;28;20022;-79
2022/01/28 12:57:18;;;;;;;5.13;1.75;;;11.10;49.50;;;;;;5052164;28;20025;-80
2022/01/28 12:59:47;;;;;;;6.10;1.80;;;10.60;50.10;;;;;;5035291;28;20028;-80
2022/01/28 13:02:14;;;;;;;6.30;2.58;;;10.30;50.80;;;;;;5036286;28;20045;-80
2022/01/28 13:09:54;;;;;;;6.68;1.90;;;10.90;49.50;;;;;;5036080;28;20496;-83
2022/01/28 13:12:29;;;;;;;5.10;1.88;;;10.90;49.60;;;;;;5036039;28;20033;-81
2022/01/28 13:15:07;;;;;;;7.30;1.85;;;10.60;49.70;;;;;;5034979;28;20064;-85
2022/01/28 13:17:33;;;;;;;5.97;2.00;;;10.50;50.10;;;;;;5036212;28;20030;-80
2022/01/28 13:20:01;;;;;;;7.13;2.13;;;10.50;50.10;;;;;;5035917;28;20056;-81
2022/01/28 13:22:29;;;;;;;4.50;2.00;;;10.60;49.80;;;;;;5035247;28;20120;-80
2022/01/28 13:24:56;;;;;;;6.05;2.00;;;10.50;50.00;;;;;;5051109;28;20045;-79
2022/01/28 13:27:37;;;;;;;6.00;2.20;;;10.50;50.10;;;;;;5034851;28;20079;-87
2022/01/28 13:30:12;;;;;;;5.32;1.70;;;10.70;49.70;;;;;;5051313;28;20037;-82
2022/01/28 13:32:41;;;;;;;5.68;1.92;;;10.30;50.30;;;;;;5034516;28;20029;-79
2022/01/28 13:35:13;;;;;;;5.55;1.80;;;10.40;50.20;;;;;;5036028;28;20554;-80
2022/01/28 13:37:49;;;;;;;7.45;1.98;;;10.50;50.00;;;;;;5034426;28;20025;-85
2022/01/28 13:40:18;;;;;;;7.18;1.70;;;10.30;50.20;;;;;;5035996;28;20029;-80
2022/01/28 13:43:13;;;;;;;5.13;1.95;;;10.30;50.50;;;;;;5035650;28;20029;-79
2022/01/28 13:45:41;;;;;;;6.40;2.55;;;10.50;50.20;;;;;;5035925;28;20031;-81
2022/01/28 13:48:22;;;;;;;10.52;5.53;;;10.50;50.20;;;;;;5034188;28;20045;-80
2022/01/28 13:50:53;;;;;;;28.35;16.42;;;10.40;50.30;;;;;;5035697;28;20041;-79
2022/01/28 13:56:09;;;;;;;8.07;3.70;;;10.40;50.60;;;;;;5035307;28;20022;-80
2022/01/28 13:58:48;;;;;;;7.60;3.47;;;10.60;50.40;;;;;;5037393;28;20037;-79
2022/01/28 14:01:14;;;;;;;8.40;4.35;;;10.90;50.10;;;;;;5035330;28;20028;-79
2022/01/28 14:03:48;;;;;;;8.73;4.72;;;11.10;50.00;;;;;;5035369;28;20037;-80
2022/01/28 14:06:20;;;;;;;7.13;3.10;;;10.80;50.00;;;;;;5033655;28;20025;-79
2022/01/28 14:08:54;;;;;;;5.05;2.33;;;10.90;50.10;;;;;;5050616;28;20021;-79
2022/01/28 14:11:37;;;;;;;5.53;1.98;;;11.10;49.50;;;;;;5033146;28;20083;-84
2022/01/28 14:14:31;;;;;;;4.93;2.17;;;11.00;49.40;;;;;;5034477;28;20388;-78
2022/01/28 14:16:57;;;;;;;4.55;1.98;;;10.40;50.60;;;;;;5035111;28;20040;-80
2022/01/28 14:19:24;;;;;;;5.68;1.90;;;10.40;50.40;;;;;;5034127;28;20036;-84
2022/01/28 14:21:51;;;;;;;9.88;3.60;;;10.30;50.90;;;;;;5033393;28;20029;-80
2022/01/28 14:24:26;;;;;;;9.73;3.75;;;10.50;51.20;;;;;;5033856;28;20072;-79
2022/01/28 14:27:11;;;;;;;28.98;12.35;;;10.80;50.80;;;;;;5034996;28;20021;-80
2022/01/28 14:32:08;;;;;;;20.98;7.55;;;11.00;50.30;;;;;;5035410;28;20131;-79